sensor_id;sensor_type;location;lat;lon;timestamp;pressure;altitude;pressure_sealevel;temperature;humidity
2178;BME280;1095;50.992;6.798;2023-04-24T00:00:54;99423.44;;;10.91;87.98
2178;BME280;1095;50.992;6.798;2023-04-24T00:03:22;99435.97;;;10.96;88.25
2178;BME280;1095;50.992;6.798;2023-04-24T00:05:49;99425.13;;;10.99;88.49
2178;BME280;1095;50.992;6.798;2023-04-24T00:08:18;99420.69;;;11.00;88.98
2178;BME280;1095;50.992;6.798;2023-04-24T00:10:44;99423.06;;;10.94;88.82
2178;BME280;1095;50.992;6.798;2023-04-24T00:13:11;99437.22;;;11.00;89.34
2178;BME280;1095;50.992;6.798;2023-04-24T00:15:38;99413.16;;;11.11;87.81
2178;BME280;1095;50.992;6.798;2023-04-24T00:18:05;99422.44;;;11.14;87.02
2178;BME280;1095;50.992;6.798;2023-04-24T00:20:32;99413.97;;;11.12;86.43
2178;BME280;1095;50.992;6.798;2023-04-24T00:22:58;99406.69;;;11.07;85.81
2178;BME280;1095;50.992;6.798;2023-04-24T00:25:26;99413.53;;;11.08;85.72
2178;BME280;1095;50.992;6.798;2023-04-24T00:27:53;99410.28;;;11.06;85.16
2178;BME280;1095;50.992;6.798;2023-04-24T00:30:20;99413.34;;;11.10;85.19
2178;BME280;1095;50.992;6.798;2023-04-24T00:32:46;99418.81;;;11.15;85.59
2178;BME280;1095;50.992;6.798;2023-04-24T00:35:13;99419.81;;;11.14;85.50
2178;BME280;1095;50.992;6.798;2023-04-24T00:37:40;99416.34;;;11.07;85.55
2178;BME280;1095;50.992;6.798;2023-04-24T00:40:07;99419.75;;;11.07;85.10
2178;BME280;1095;50.992;6.798;2023-04-24T00:42:35;99424.19;;;11.07;85.36
2178;BME280;1095;50.992;6.798;2023-04-24T00:45:03;99403.38;;;10.98;85.07
2178;BME280;1095;50.992;6.798;2023-04-24T00:47:30;99402.38;;;11.00;84.91
2178;BME280;1095;50.992;6.798;2023-04-24T00:50:00;99408.22;;;11.02;84.91
2178;BME280;1095;50.992;6.798;2023-04-24T00:52:27;99406.63;;;11.01;84.82
2178;BME280;1095;50.992;6.798;2023-04-24T00:54:56;99406.94;;;10.91;85.17
2178;BME280;1095;50.992;6.798;2023-04-24T00:57:23;99412.34;;;10.89;85.71
2178;BME280;1095;50.992;6.798;2023-04-24T00:59:52;99405.91;;;10.85;85.48
2178;BME280;1095;50.992;6.798;2023-04-24T01:02:20;99402.31;;;10.93;85.07
2178;BME280;1095;50.992;6.798;2023-04-24T01:04:49;99396.03;;;10.87;84.07
2178;BME280;1095;50.992;6.798;2023-04-24T01:07:17;99400.66;;;10.85;83.98
2178;BME280;1095;50.992;6.798;2023-04-24T01:09:47;99391.38;;;10.83;83.37
2178;BME280;1095;50.992;6.798;2023-04-24T01:12:16;99403.66;;;10.82;83.46
2178;BME280;1095;50.992;6.798;2023-04-24T01:14:44;99409.25;;;10.79;83.35
2178;BME280;1095;50.992;6.798;2023-04-24T01:17:12;99423.09;;;10.73;84.28
2178;BME280;1095;50.992;6.798;2023-04-24T01:19:39;99424.19;;;10.64;85.08
2178;BME280;1095;50.992;6.798;2023-04-24T01:22:11;99428.19;;;10.60;85.78
2178;BME280;1095;50.992;6.798;2023-04-24T01:24:38;99418.28;;;10.41;84.73
2178;BME280;1095;50.992;6.798;2023-04-24T01:27:05;99414.19;;;10.32;84.57
2178;BME280;1095;50.992;6.798;2023-04-24T01:29:32;99418.28;;;10.19;84.72
2178;BME280;1095;50.992;6.798;2023-04-24T01:31:58;99434.66;;;10.13;84.71
2178;BME280;1095;50.992;6.798;2023-04-24T01:34:25;99432.22;;;9.97;85.05
2178;BME280;1095;50.992;6.798;2023-04-24T01:36:51;99439.19;;;9.90;85.17
2178;BME280;1095;50.992;6.798;2023-04-24T01:39:19;99442.78;;;9.74;85.59
2178;BME280;1095;50.992;6.798;2023-04-24T01:41:48;99439.78;;;9.62;85.57
2178;BME280;1095;50.992;6.798;2023-04-24T01:44:15;99446.44;;;9.50;86.26
2178;BME280;1095;50.992;6.798;2023-04-24T01:46:42;99454.06;;;9.37;86.90
2178;BME280;1095;50.992;6.798;2023-04-24T01:49:08;99452.44;;;9.36;87.60
2178;BME280;1095;50.992;6.798;2023-04-24T01:51:35;99459.72;;;9.26;88.38
2178;BME280;1095;50.992;6.798;2023-04-24T01:54:01;99457.16;;;9.18;88.30
2178;BME280;1095;50.992;6.798;2023-04-24T01:56:29;99455.25;;;9.12;88.99
2178;BME280;1095;50.992;6.798;2023-04-24T01:58:56;99456.41;;;9.09;89.29
2178;BME280;1095;50.992;6.798;2023-04-24T02:01:23;99450.59;;;8.99;89.83
2178;BME280;1095;50.992;6.798;2023-04-24T02:03:50;99457.91;;;9.04;89.80
2178;BME280;1095;50.992;6.798;2023-04-24T02:06:17;99442.41;;;8.87;90.34
2178;BME280;1095;50.992;6.798;2023-04-24T02:08:44;99454.00;;;8.85;90.64
2178;BME280;1095;50.992;6.798;2023-04-24T02:11:12;99449.41;;;8.87;90.68
2178;BME280;1095;50.992;6.798;2023-04-24T02:13:40;99441.41;;;8.88;90.63
2178;BME280;1095;50.992;6.798;2023-04-24T02:16:07;99441.06;;;8.91;90.47
2178;BME280;1095;50.992;6.798;2023-04-24T02:18:33;99438.81;;;8.88;90.41
2178;BME280;1095;50.992;6.798;2023-04-24T02:21:00;99440.44;;;8.89;90.25
2178;BME280;1095;50.992;6.798;2023-04-24T02:23:27;99449.81;;;8.98;89.96
2178;BME280;1095;50.992;6.798;2023-04-24T02:25:54;99433.44;;;9.05;90.24
2178;BME280;1095;50.992;6.798;2023-04-24T02:28:21;99436.00;;;9.13;89.91
2178;BME280;1095;50.992;6.798;2023-04-24T02:30:49;99438.91;;;9.18;89.24
2178;BME280;1095;50.992;6.798;2023-04-24T02:33:16;99439.34;;;9.21;89.29
2178;BME280;1095;50.992;6.798;2023-04-24T02:35:42;99442.78;;;9.22;89.42
2178;BME280;1095;50.992;6.798;2023-04-24T02:38:08;99442.88;;;9.28;88.94
2178;BME280;1095;50.992;6.798;2023-04-24T02:40:35;99453.16;;;9.30;88.94
2178;BME280;1095;50.992;6.798;2023-04-24T02:43:01;99446.25;;;9.37;88.49
2178;BME280;1095;50.992;6.798;2023-04-24T02:45:28;99448.50;;;9.40;88.47
2178;BME280;1095;50.992;6.798;2023-04-24T02:47:56;99447.34;;;9.43;88.19
2178;BME280;1095;50.992;6.798;2023-04-24T02:50:22;99453.00;;;9.46;87.99
2178;BME280;1095;50.992;6.798;2023-04-24T02:52:49;99450.84;;;9.50;87.60
2178;BME280;1095;50.992;6.798;2023-04-24T02:55:15;99458.22;;;9.46;87.34
2178;BME280;1095;50.992;6.798;2023-04-24T02:57:42;99464.69;;;9.50;87.42
2178;BME280;1095;50.992;6.798;2023-04-24T03:00:08;99460.22;;;9.44;87.71
2178;BME280;1095;50.992;6.798;2023-04-24T03:02:36;99470.38;;;9.54;87.63
2178;BME280;1095;50.992;6.798;2023-04-24T03:05:04;99462.72;;;9.52;87.45
2178;BME280;1095;50.992;6.798;2023-04-24T03:07:31;99467.50;;;9.49;87.63
2178;BME280;1095;50.992;6.798;2023-04-24T03:09:57;99470.66;;;9.44;87.75
2178;BME280;1095;50.992;6.798;2023-04-24T03:12:24;99466.31;;;9.37;87.34
2178;BME280;1095;50.992;6.798;2023-04-24T03:14:50;99473.88;;;9.31;87.20
2178;BME280;1095;50.992;6.798;2023-04-24T03:17:17;99472.13;;;9.24;87.73
2178;BME280;1095;50.992;6.798;2023-04-24T03:19:43;99473.75;;;9.25;87.39
2178;BME280;1095;50.992;6.798;2023-04-24T03:22:11;99474.22;;;9.28;87.45
2178;BME280;1095;50.992;6.798;2023-04-24T03:24:37;99484.31;;;9.31;87.28
2178;BME280;1095;50.992;6.798;2023-04-24T03:27:04;99478.91;;;9.33;87.24
2178;BME280;1095;50.992;6.798;2023-04-24T03:29:30;99478.91;;;9.33;87.40
2178;BME280;1095;50.992;6.798;2023-04-24T03:31:57;99477.75;;;9.36;86.98
2178;BME280;1095;50.992;6.798;2023-04-24T03:34:23;99470.16;;;9.26;86.98
2178;BME280;1095;50.992;6.798;2023-04-24T03:36:50;99467.59;;;9.18;87.28
2178;BME280;1095;50.992;6.798;2023-04-24T03:39:18;99474.97;;;9.14;87.21
2178;BME280;1095;50.992;6.798;2023-04-24T03:41:45;99476.13;;;9.12;87.06
2178;BME280;1095;50.992;6.798;2023-04-24T03:44:11;99473.88;;;9.09;87.39
2178;BME280;1095;50.992;6.798;2023-04-24T03:46:38;99477.47;;;9.08;87.44
2178;BME280;1095;50.992;6.798;2023-04-24T03:49:04;99467.84;;;9.08;87.28
2178;BME280;1095;50.992;6.798;2023-04-24T03:51:31;99471.84;;;9.19;87.15
2178;BME280;1095;50.992;6.798;2023-04-24T03:53:57;99471.50;;;9.22;87.14
2178;BME280;1095;50.992;6.798;2023-04-24T03:56:25;99466.91;;;9.24;86.89
2178;BME280;1095;50.992;6.798;2023-04-24T03:58:51;99467.09;;;9.22;86.64
2178;BME280;1095;50.992;6.798;2023-04-24T04:01:18;99469.53;;;9.24;86.27
2178;BME280;1095;50.992;6.798;2023-04-24T04:03:45;99476.38;;;9.25;86.54
2178;BME280;1095;50.992;6.798;2023-04-24T04:06:12;99471.50;;;9.22;87.09
2178;BME280;1095;50.992;6.798;2023-04-24T04:08:38;99474.44;;;9.19;87.58
2178;BME280;1095;50.992;6.798;2023-04-24T04:11:04;99472.31;;;9.22;87.99
2178;BME280;1095;50.992;6.798;2023-04-24T04:13:32;99486.81;;;9.25;87.62
2178;BME280;1095;50.992;6.798;2023-04-24T04:15:59;99474.28;;;9.20;87.67
2178;BME280;1095;50.992;6.798;2023-04-24T04:18:25;99479.50;;;9.20;87.56
2178;BME280;1095;50.992;6.798;2023-04-24T04:20:51;99477.06;;;9.19;87.63
2178;BME280;1095;50.992;6.798;2023-04-24T04:23:18;99478.03;;;9.18;87.84
2178;BME280;1095;50.992;6.798;2023-04-24T04:25:44;99481.00;;;9.15;88.16
2178;BME280;1095;50.992;6.798;2023-04-24T04:28:12;99480.66;;;9.18;88.16
2178;BME280;1095;50.992;6.798;2023-04-24T04:30:39;99480.31;;;9.21;88.16
2178;BME280;1095;50.992;6.798;2023-04-24T04:33:06;99479.59;;;9.27;87.95
2178;BME280;1095;50.992;6.798;2023-04-24T04:35:33;99475.38;;;9.26;87.50
2178;BME280;1095;50.992;6.798;2023-04-24T04:37:59;99485.47;;;9.29;87.30
2178;BME280;1095;50.992;6.798;2023-04-24T04:40:25;99492.66;;;9.27;87.26
2178;BME280;1095;50.992;6.798;2023-04-24T04:42:53;99493.66;;;9.26;87.25
2178;BME280;1095;50.992;6.798;2023-04-24T04:45:19;99495.44;;;9.25;87.56
2178;BME280;1095;50.992;6.798;2023-04-24T04:47:47;99496.53;;;9.31;87.53
2178;BME280;1095;50.992;6.798;2023-04-24T04:50:13;99501.78;;;9.31;87.14
2178;BME280;1095;50.992;6.798;2023-04-24T04:52:41;99490.69;;;9.29;86.72
2178;BME280;1095;50.992;6.798;2023-04-24T04:55:08;99500.16;;;9.30;86.73
2178;BME280;1095;50.992;6.798;2023-04-24T04:57:34;99506.00;;;9.32;86.68
2178;BME280;1095;50.992;6.798;2023-04-24T05:00:01;99503.09;;;9.27;86.62
2178;BME280;1095;50.992;6.798;2023-04-24T05:02:27;99507.81;;;9.31;86.23
2178;BME280;1095;50.992;6.798;2023-04-24T05:04:55;99512.22;;;9.31;86.61
2178;BME280;1095;50.992;6.798;2023-04-24T05:07:21;99512.22;;;9.31;86.71
2178;BME280;1095;50.992;6.798;2023-04-24T05:09:47;99514.66;;;9.32;86.53
2178;BME280;1095;50.992;6.798;2023-04-24T05:12:14;99518.25;;;9.31;86.01
2178;BME280;1095;50.992;6.798;2023-04-24T05:14:40;99516.63;;;9.30;86.19
2178;BME280;1095;50.992;6.798;2023-04-24T05:17:07;99515.81;;;9.30;86.29
2178;BME280;1095;50.992;6.798;2023-04-24T05:19:33;99522.66;;;9.31;86.86
2178;BME280;1095;50.992;6.798;2023-04-24T05:22:04;99522.34;;;9.26;87.52
2178;BME280;1095;50.992;6.798;2023-04-24T05:24:32;99515.50;;;9.25;88.01
2178;BME280;1095;50.992;6.798;2023-04-24T05:26:58;99535.41;;;9.26;88.18
2178;BME280;1095;50.992;6.798;2023-04-24T05:29:24;99538.03;;;9.26;89.06
2178;BME280;1095;50.992;6.798;2023-04-24T05:31:51;99544.09;;;9.18;89.57
2178;BME280;1095;50.992;6.798;2023-04-24T05:34:17;99540.38;;;9.13;90.48
2178;BME280;1095;50.992;6.798;2023-04-24T05:36:44;99546.28;;;9.07;91.44
2178;BME280;1095;50.992;6.798;2023-04-24T05:39:12;99550.88;;;9.05;92.06
2178;BME280;1095;50.992;6.798;2023-04-24T05:41:38;99546.63;;;9.04;92.50
2178;BME280;1095;50.992;6.798;2023-04-24T05:44:04;99540.94;;;9.00;92.78
2178;BME280;1095;50.992;6.798;2023-04-24T05:46:31;99547.34;;;8.97;92.96
2178;BME280;1095;50.992;6.798;2023-04-24T05:48:57;99557.06;;;9.04;92.81
2178;BME280;1095;50.992;6.798;2023-04-24T05:51:24;99560.03;;;9.01;92.66
2178;BME280;1095;50.992;6.798;2023-04-24T05:53:50;99549.06;;;9.05;92.19
2178;BME280;1095;50.992;6.798;2023-04-24T05:56:18;99545.47;;;9.06;91.71
2178;BME280;1095;50.992;6.798;2023-04-24T05:58:45;99537.31;;;9.09;91.58
2178;BME280;1095;50.992;6.798;2023-04-24T06:01:12;99545.31;;;9.08;91.06
2178;BME280;1095;50.992;6.798;2023-04-24T06:03:39;99554.97;;;8.99;92.17
2178;BME280;1095;50.992;6.798;2023-04-24T06:06:05;99552.44;;;8.91;92.40
2178;BME280;1095;50.992;6.798;2023-04-24T06:08:32;99557.19;;;8.87;93.21
2178;BME280;1095;50.992;6.798;2023-04-24T06:10:58;99551.81;;;8.89;92.89
2178;BME280;1095;50.992;6.798;2023-04-24T06:13:26;99554.81;;;9.01;92.84
2178;BME280;1095;50.992;6.798;2023-04-24T06:15:53;99556.59;;;9.00;92.92
2178;BME280;1095;50.992;6.798;2023-04-24T06:18:19;99549.06;;;9.05;93.38
2178;BME280;1095;50.992;6.798;2023-04-24T06:20:46;99553.47;;;9.05;94.02
2178;BME280;1095;50.992;6.798;2023-04-24T06:23:12;99555.75;;;9.08;93.85
2178;BME280;1095;50.992;6.798;2023-04-24T06:25:39;99554.81;;;9.01;94.15
2178;BME280;1095;50.992;6.798;2023-04-24T06:28:06;99551.31;;;8.85;94.66
2178;BME280;1095;50.992;6.798;2023-04-24T06:30:33;99564.06;;;8.80;95.45
2178;BME280;1095;50.992;6.798;2023-04-24T06:33:00;99575.78;;;8.84;95.67
2178;BME280;1095;50.992;6.798;2023-04-24T06:35:26;99571.88;;;8.80;96.13
2178;BME280;1095;50.992;6.798;2023-04-24T06:37:52;99583.81;;;8.75;96.90
2178;BME280;1095;50.992;6.798;2023-04-24T06:40:21;99585.59;;;8.74;97.17
2178;BME280;1095;50.992;6.798;2023-04-24T06:42:50;99574.06;;;8.69;97.87
2178;BME280;1095;50.992;6.798;2023-04-24T06:45:17;99582.72;;;8.61;97.85
2178;BME280;1095;50.992;6.798;2023-04-24T06:47:44;99587.44;;;8.57;97.94
2178;BME280;1095;50.992;6.798;2023-04-24T06:50:11;99591.22;;;8.55;98.57
2178;BME280;1095;50.992;6.798;2023-04-24T06:52:37;99606.03;;;8.62;99.21
2178;BME280;1095;50.992;6.798;2023-04-24T06:55:04;99592.19;;;8.54;99.64
2178;BME280;1095;50.992;6.798;2023-04-24T06:57:31;99591.91;;;8.49;100.00
2178;BME280;1095;50.992;6.798;2023-04-24T07:00:00;99597.13;;;8.41;100.00
2178;BME280;1095;50.992;6.798;2023-04-24T07:02:28;99597.81;;;8.35;100.00
2178;BME280;1095;50.992;6.798;2023-04-24T07:04:55;99591.59;;;8.27;100.00
2178;BME280;1095;50.992;6.798;2023-04-24T07:07:22;99597.47;;;8.13;100.00
2178;BME280;1095;50.992;6.798;2023-04-24T07:09:48;99603.34;;;8.23;100.00
2178;BME280;1095;50.992;6.798;2023-04-24T07:12:15;99617.66;;;8.19;100.00
2178;BME280;1095;50.992;6.798;2023-04-24T07:14:45;99615.88;;;8.20;100.00
2178;BME280;1095;50.992;6.798;2023-04-24T07:17:11;99621.41;;;8.17;100.00
2178;BME280;1095;50.992;6.798;2023-04-24T07:19:38;99631.19;;;8.15;100.00
2178;BME280;1095;50.992;6.798;2023-04-24T07:22:06;99620.63;;;8.32;100.00
2178;BME280;1095;50.992;6.798;2023-04-24T07:24:32;99628.56;;;8.31;100.00
2178;BME280;1095;50.992;6.798;2023-04-24T07:26:58;99635.56;;;8.30;100.00
2178;BME280;1095;50.992;6.798;2023-04-24T07:29:26;99613.09;;;8.21;100.00
2178;BME280;1095;50.992;6.798;2023-04-24T07:31:52;99640.16;;;8.04;100.00
2178;BME280;1095;50.992;6.798;2023-04-24T07:34:19;99643.59;;;7.88;100.00
2178;BME280;1095;50.992;6.798;2023-04-24T07:36:45;99631.69;;;7.86;100.00
2178;BME280;1095;50.992;6.798;2023-04-24T07:39:13;99652.53;;;7.94;100.00
2178;BME280;1095;50.992;6.798;2023-04-24T07:41:40;99646.00;;;7.74;100.00
2178;BME280;1095;50.992;6.798;2023-04-24T07:44:06;99654.81;;;7.73;100.00
2178;BME280;1095;50.992;6.798;2023-04-24T07:46:33;99648.75;;;7.64;100.00
2178;BME280;1095;50.992;6.798;2023-04-24T07:48:59;99666.66;;;7.59;100.00
2178;BME280;1095;50.992;6.798;2023-04-24T07:51:26;99666.47;;;7.44;100.00
2178;BME280;1095;50.992;6.798;2023-04-24T07:53:53;99676.25;;;7.42;100.00
2178;BME280;1095;50.992;6.798;2023-04-24T07:56:21;99682.25;;;7.43;100.00
2178;BME280;1095;50.992;6.798;2023-04-24T07:58:50;99678.44;;;7.21;100.00
2178;BME280;1095;50.992;6.798;2023-04-24T08:01:17;99683.28;;;7.16;100.00
2178;BME280;1095;50.992;6.798;2023-04-24T08:03:43;99704.09;;;7.08;100.00
2178;BME280;1095;50.992;6.798;2023-04-24T08:06:10;99703.44;;;7.06;100.00
2178;BME280;1095;50.992;6.798;2023-04-24T08:08:36;99704.38;;;6.96;100.00
2178;BME280;1095;50.992;6.798;2023-04-24T08:11:02;99713.97;;;6.96;100.00
2178;BME280;1095;50.992;6.798;2023-04-24T08:13:33;99713.44;;;6.92;100.00
2178;BME280;1095;50.992;6.798;2023-04-24T08:16:00;99706.63;;;6.91;100.00
2178;BME280;1095;50.992;6.798;2023-04-24T08:18:26;99721.72;;;6.88;100.00
2178;BME280;1095;50.992;6.798;2023-04-24T08:20:55;99727.88;;;6.87;100.00
2178;BME280;1095;50.992;6.798;2023-04-24T08:23:26;99727.72;;;6.88;100.00
2178;BME280;1095;50.992;6.798;2023-04-24T08:25:53;99731.59;;;6.84;100.00
2178;BME280;1095;50.992;6.798;2023-04-24T08:28:20;99731.31;;;6.87;100.00
2178;BME280;1095;50.992;6.798;2023-04-24T08:30:48;99737.63;;;6.85;100.00
2178;BME280;1095;50.992;6.798;2023-04-24T08:33:19;99739.72;;;6.81;100.00
2178;BME280;1095;50.992;6.798;2023-04-24T08:35:45;99743.13;;;6.82;100.00
2178;BME280;1095;50.992;6.798;2023-04-24T08:38:12;99749.97;;;6.83;100.00
2178;BME280;1095;50.992;6.798;2023-04-24T08:40:38;99748.84;;;6.85;100.00
2178;BME280;1095;50.992;6.798;2023-04-24T08:43:05;99753.38;;;6.83;100.00
2178;BME280;1095;50.992;6.798;2023-04-24T08:45:32;99760.50;;;6.81;100.00
2178;BME280;1095;50.992;6.798;2023-04-24T08:48:00;99769.28;;;6.80;100.00
2178;BME280;1095;50.992;6.798;2023-04-24T08:50:28;99782.28;;;6.80;100.00
2178;BME280;1095;50.992;6.798;2023-04-24T08:52:55;99786.50;;;6.81;100.00
2178;BME280;1095;50.992;6.798;2023-04-24T08:55:22;99787.69;;;6.87;100.00
2178;BME280;1095;50.992;6.798;2023-04-24T08:57:50;99795.13;;;6.82;100.00
2178;BME280;1095;50.992;6.798;2023-04-24T09:00:17;99809.75;;;6.83;100.00
2178;BME280;1095;50.992;6.798;2023-04-24T09:02:44;99811.25;;;6.85;100.00
2178;BME280;1095;50.992;6.798;2023-04-24T09:05:14;99820.75;;;6.94;100.00
2178;BME280;1095;50.992;6.798;2023-04-24T09:07:43;99825.66;;;6.97;100.00
2178;BME280;1095;50.992;6.798;2023-04-24T09:10:11;99837.53;;;7.00;100.00
2178;BME280;1095;50.992;6.798;2023-04-24T09:12:37;99841.97;;;7.08;100.00
2178;BME280;1095;50.992;6.798;2023-04-24T09:15:04;99835.13;;;7.07;100.00
2178;BME280;1095;50.992;6.798;2023-04-24T09:17:33;99846.03;;;7.10;100.00
2178;BME280;1095;50.992;6.798;2023-04-24T09:20:00;99863.47;;;7.18;100.00
2178;BME280;1095;50.992;6.798;2023-04-24T09:22:30;99866.97;;;7.26;100.00
2178;BME280;1095;50.992;6.798;2023-04-24T09:24:59;99879.81;;;7.28;100.00
2178;BME280;1095;50.992;6.798;2023-04-24T09:27:28;99890.88;;;7.30;100.00
2178;BME280;1095;50.992;6.798;2023-04-24T09:29:55;99891.75;;;7.39;100.00
2178;BME280;1095;50.992;6.798;2023-04-24T09:32:21;99902.31;;;7.37;100.00
2178;BME280;1095;50.992;6.798;2023-04-24T09:35:04;99906.78;;;7.45;100.00
2178;BME280;1095;50.992;6.798;2023-04-24T09:37:34;99898.19;;;7.52;100.00
2178;BME280;1095;50.992;6.798;2023-04-24T09:40:08;99906.03;;;7.60;100.00
2178;BME280;1095;50.992;6.798;2023-04-24T09:42:35;99910.56;;;7.58;100.00
2178;BME280;1095;50.992;6.798;2023-04-24T09:45:01;99907.34;;;7.64;100.00
2178;BME280;1095;50.992;6.798;2023-04-24T09:47:28;99915.72;;;7.76;100.00
2178;BME280;1095;50.992;6.798;2023-04-24T09:50:08;99914.31;;;7.90;100.00
2178;BME280;1095;50.992;6.798;2023-04-24T09:52:36;99920.72;;;7.95;100.00
2178;BME280;1095;50.992;6.798;2023-04-24T09:55:10;99923.50;;;8.10;100.00
2178;BME280;1095;50.992;6.798;2023-04-24T09:57:40;99914.41;;;8.14;100.00
2178;BME280;1095;50.992;6.798;2023-04-24T10:00:13;99922.97;;;8.32;100.00
2178;BME280;1095;50.992;6.798;2023-04-24T10:02:39;99920.75;;;8.46;100.00
2178;BME280;1095;50.992;6.798;2023-04-24T10:05:06;99915.22;;;8.73;100.00
2178;BME280;1095;50.992;6.798;2023-04-24T10:07:33;99936.94;;;8.90;100.00
2178;BME280;1095;50.992;6.798;2023-04-24T10:10:00;99935.78;;;9.09;100.00
2178;BME280;1095;50.992;6.798;2023-04-24T10:12:27;99943.13;;;9.05;100.00
2178;BME280;1095;50.992;6.798;2023-04-24T10:14:54;99929.59;;;8.93;100.00
2178;BME280;1095;50.992;6.798;2023-04-24T10:17:20;99945.25;;;9.02;100.00
2178;BME280;1095;50.992;6.798;2023-04-24T10:19:48;99941.34;;;8.97;100.00
2178;BME280;1095;50.992;6.798;2023-04-24T10:22:15;99950.16;;;9.21;100.00
2178;BME280;1095;50.992;6.798;2023-04-24T10:24:41;99948.19;;;9.23;100.00
2178;BME280;1095;50.992;6.798;2023-04-24T10:27:10;99951.63;;;9.31;100.00
2178;BME280;1095;50.992;6.798;2023-04-24T10:29:37;99957.16;;;9.37;100.00
2178;BME280;1095;50.992;6.798;2023-04-24T10:32:06;99957.31;;;9.43;100.00
2178;BME280;1095;50.992;6.798;2023-04-24T10:34:34;99953.75;;;9.28;100.00
2178;BME280;1095;50.992;6.798;2023-04-24T10:37:04;99963.38;;;9.36;100.00
2178;BME280;1095;50.992;6.798;2023-04-24T10:39:31;99966.47;;;9.31;100.00
2178;BME280;1095;50.992;6.798;2023-04-24T10:41:58;99960.38;;;9.55;100.00
2178;BME280;1095;50.992;6.798;2023-04-24T10:44:27;99966.25;;;9.57;100.00
2178;BME280;1095;50.992;6.798;2023-04-24T10:47:02;99981.81;;;9.42;99.34
2178;BME280;1095;50.992;6.798;2023-04-24T10:49:28;99979.84;;;9.36;99.40
2178;BME280;1095;50.992;6.798;2023-04-24T10:51:59;99985.22;;;9.43;98.80
2178;BME280;1095;50.992;6.798;2023-04-24T10:54:27;99986.53;;;9.39;98.78
2178;BME280;1095;50.992;6.798;2023-04-24T10:57:25;99993.88;;;9.27;99.27
2178;BME280;1095;50.992;6.798;2023-04-24T11:02:47;100003.81;;;9.07;100.00
2178;BME280;1095;50.992;6.798;2023-04-24T11:05:15;100007.06;;;9.09;100.00
2178;BME280;1095;50.992;6.798;2023-04-24T11:10:28;100007.09;;;9.25;100.00
2178;BME280;1095;50.992;6.798;2023-04-24T11:12:55;100006.63;;;9.38;100.00
2178;BME280;1095;50.992;6.798;2023-04-24T11:15:21;100005.59;;;9.80;100.00
2178;BME280;1095;50.992;6.798;2023-04-24T11:17:49;100013.84;;;9.99;99.24
2178;BME280;1095;50.992;6.798;2023-04-24T11:20:16;100020.09;;;10.46;97.91
2178;BME280;1095;50.992;6.798;2023-04-24T11:22:43;100014.25;;;10.75;95.61
2178;BME280;1095;50.992;6.798;2023-04-24T11:25:09;100029.16;;;10.74;94.09
2178;BME280;1095;50.992;6.798;2023-04-24T11:27:38;100017.34;;;10.78;93.11
2178;BME280;1095;50.992;6.798;2023-04-24T11:30:05;100024.63;;;10.60;91.91
2178;BME280;1095;50.992;6.798;2023-04-24T11:32:34;100029.28;;;10.42;92.05
2178;BME280;1095;50.992;6.798;2023-04-24T11:35:03;100028.06;;;10.21;91.79
2178;BME280;1095;50.992;6.798;2023-04-24T11:37:33;100039.56;;;9.88;91.20
2178;BME280;1095;50.992;6.798;2023-04-24T11:39:59;100050.66;;;9.90;91.79
2178;BME280;1095;50.992;6.798;2023-04-24T11:42:26;100039.41;;;9.73;92.83
2178;BME280;1095;50.992;6.798;2023-04-24T11:44:53;100045.13;;;9.77;93.52
2178;BME280;1095;50.992;6.798;2023-04-24T11:47:27;100054.22;;;9.97;94.49
2178;BME280;1095;50.992;6.798;2023-04-24T11:49:53;100046.81;;;10.17;96.13
2178;BME280;1095;50.992;6.798;2023-04-24T11:52:21;100047.63;;;10.34;95.94
2178;BME280;1095;50.992;6.798;2023-04-24T11:54:48;100045.78;;;10.42;96.45
2178;BME280;1095;50.992;6.798;2023-04-24T11:57:15;100056.47;;;10.33;96.48
2178;BME280;1095;50.992;6.798;2023-04-24T11:59:41;100052.25;;;10.23;96.71
2178;BME280;1095;50.992;6.798;2023-04-24T12:02:08;100050.09;;;10.11;96.88
2178;BME280;1095;50.992;6.798;2023-04-24T12:04:38;100051.09;;;10.10;97.17
2178;BME280;1095;50.992;6.798;2023-04-24T12:07:04;100054.03;;;10.07;96.88
2178;BME280;1095;50.992;6.798;2023-04-24T12:09:44;100067.25;;;10.13;94.95
2178;BME280;1095;50.992;6.798;2023-04-24T12:12:11;100060.56;;;10.35;94.69
2178;BME280;1095;50.992;6.798;2023-04-24T12:14:47;100064.81;;;10.28;92.61
2178;BME280;1095;50.992;6.798;2023-04-24T12:17:14;100072.72;;;10.51;91.90
2178;BME280;1095;50.992;6.798;2023-04-24T12:19:46;100068.47;;;10.58;90.64
2178;BME280;1095;50.992;6.798;2023-04-24T12:22:13;100074.53;;;10.89;90.12
2178;BME280;1095;50.992;6.798;2023-04-24T12:24:57;100075.97;;;11.23;88.78
2178;BME280;1095;50.992;6.798;2023-04-24T12:27:23;100056.69;;;11.39;87.66
2178;BME280;1095;50.992;6.798;2023-04-24T12:29:56;100069.91;;;11.45;86.74
2178;BME280;1095;50.992;6.798;2023-04-24T12:32:23;100060.16;;;11.16;85.15
2178;BME280;1095;50.992;6.798;2023-04-24T12:34:50;100065.59;;;11.07;85.21
2178;BME280;1095;50.992;6.798;2023-04-24T12:37:17;100065.25;;;11.10;85.52
2178;BME280;1095;50.992;6.798;2023-04-24T12:39:48;100070.28;;;11.19;84.30
2178;BME280;1095;50.992;6.798;2023-04-24T12:42:26;100063.00;;;11.29;83.24
2178;BME280;1095;50.992;6.798;2023-04-24T12:44:56;100069.81;;;11.16;82.50
2178;BME280;1095;50.992;6.798;2023-04-24T12:47:22;100080.88;;;11.26;82.53
2178;BME280;1095;50.992;6.798;2023-04-24T12:49:48;100080.53;;;11.29;81.88
2178;BME280;1095;50.992;6.798;2023-04-24T12:52:17;100075.97;;;11.46;82.44
2178;BME280;1095;50.992;6.798;2023-04-24T12:54:45;100080.56;;;11.44;82.12
2178;BME280;1095;50.992;6.798;2023-04-24T12:57:11;100080.88;;;11.26;82.36
2178;BME280;1095;50.992;6.798;2023-04-24T12:59:39;100080.63;;;11.58;82.42
2178;BME280;1095;50.992;6.798;2023-04-24T13:02:06;100079.94;;;11.64;81.96
2178;BME280;1095;50.992;6.798;2023-04-24T13:04:34;100084.53;;;11.62;81.23
2178;BME280;1095;50.992;6.798;2023-04-24T13:07:00;100071.03;;;11.28;80.20
2178;BME280;1095;50.992;6.798;2023-04-24T13:09:26;100076.19;;;11.36;79.53
2178;BME280;1095;50.992;6.798;2023-04-24T13:11:53;100076.03;;;11.38;79.07
2178;BME280;1095;50.992;6.798;2023-04-24T13:14:20;100077.84;;;11.37;78.83
2178;BME280;1095;50.992;6.798;2023-04-24T13:16:48;100084.00;;;11.67;77.89
2178;BME280;1095;50.992;6.798;2023-04-24T13:19:14;100079.59;;;11.45;77.40
2178;BME280;1095;50.992;6.798;2023-04-24T13:21:41;100085.44;;;11.78;77.74
2178;BME280;1095;50.992;6.798;2023-04-24T13:24:07;100082.66;;;11.94;77.02
2178;BME280;1095;50.992;6.798;2023-04-24T13:26:34;100092.25;;;12.02;78.14
2178;BME280;1095;50.992;6.798;2023-04-24T13:29:00;100087.25;;;11.92;77.20
2178;BME280;1095;50.992;6.798;2023-04-24T13:31:27;100086.44;;;11.91;76.92